sensor_id;sensor_type;location;lat;lon;timestamp;pressure;altitude;pressure_sealevel;temperature;humidity
74856;BME280;63407;53.018;8.690;2022-10-16T04:03:31;101017.81;;;15.90;67.43
74856;BME280;63407;53.018;8.690;2022-10-16T04:05:56;101020.72;;;15.88;67.42
74856;BME280;63407;53.018;8.690;2022-10-16T04:08:22;101020.72;;;15.88;67.43
74856;BME280;63407;53.018;8.690;2022-10-16T04:10:48;101030.66;;;15.88;67.56
74856;BME280;63407;53.018;8.690;2022-10-16T04:13:14;101042.31;;;15.88;67.47
74856;BME280;63407;53.018;8.690;2022-10-16T04:15:40;101040.47;;;15.89;67.35
74856;BME280;63407;53.018;8.690;2022-10-16T04:18:06;101046.88;;;15.88;67.44
74856;BME280;63407;53.018;8.690;2022-10-16T04:20:32;101037.09;;;15.87;67.55
74856;BME280;63407;53.018;8.690;2022-10-16T04:22:58;101042.50;;;15.87;67.52
74856;BME280;63407;53.018;8.690;2022-10-16T04:25:23;101029.00;;;15.87;67.52
74856;BME280;63407;53.018;8.690;2022-10-16T04:27:49;101034.41;;;15.87;67.53
74856;BME280;63407;53.018;8.690;2022-10-16T04:30:14;101022.97;;;15.85;67.59
74856;BME280;63407;53.018;8.690;2022-10-16T04:32:40;101024.44;;;15.87;67.35
74856;BME280;63407;53.018;8.690;2022-10-16T04:35:06;101030.06;;;15.86;67.54
74856;BME280;63407;53.018;8.690;2022-10-16T04:37:32;101029.00;;;15.87;67.52
74856;BME280;63407;53.018;8.690;2022-10-16T04:39:57;101030.06;;;15.86;67.50
74856;BME280;63407;53.018;8.690;2022-10-16T04:42:23;101028.19;;;15.86;67.60
74856;BME280;63407;53.018;8.690;2022-10-16T04:44:48;101034.81;;;15.84;67.62
74856;BME280;63407;53.018;8.690;2022-10-16T04:47:14;101029.41;;;15.84;67.60
74856;BME280;63407;53.018;8.690;2022-10-16T04:49:39;101033.75;;;15.85;67.51
74856;BME280;63407;53.018;8.690;2022-10-16T04:52:06;101037.69;;;15.82;67.53
74856;BME280;63407;53.018;8.690;2022-10-16T04:54:31;101034.81;;;15.84;67.31
74856;BME280;63407;53.018;8.690;2022-10-16T04:56:57;101033.97;;;15.83;67.60
74856;BME280;63407;53.018;8.690;2022-10-16T04:59:23;101040.19;;;15.84;67.46
74856;BME280;63407;53.018;8.690;2022-10-16T05:01:49;101056.41;;;15.84;67.56
74856;BME280;63407;53.018;8.690;2022-10-16T05:04:15;101056.41;;;15.84;67.52
74856;BME280;63407;53.018;8.690;2022-10-16T05:06:41;101056.56;;;15.82;67.69
74856;BME280;63407;53.018;8.690;2022-10-16T05:09:07;101043.06;;;15.82;67.63
74856;BME280;63407;53.018;8.690;2022-10-16T05:11:33;101058.44;;;15.82;67.73
74856;BME280;63407;53.018;8.690;2022-10-16T05:13:59;101053.03;;;15.82;67.81
74856;BME280;63407;53.018;8.690;2022-10-16T05:16:25;101052.22;;;15.81;67.65
74856;BME280;63407;53.018;8.690;2022-10-16T05:18:54;101051.38;;;15.81;67.82
74856;BME280;63407;53.018;8.690;2022-10-16T05:21:20;101040.59;;;15.81;67.87
74856;BME280;63407;53.018;8.690;2022-10-16T05:23:45;101056.78;;;15.81;67.83
74856;BME280;63407;53.018;8.690;2022-10-16T05:26:11;101067.56;;;15.81;67.63
74856;BME280;63407;53.018;8.690;2022-10-16T05:28:37;101072.97;;;15.81;67.78
74856;BME280;63407;53.018;8.690;2022-10-16T05:31:06;101072.16;;;15.80;67.75
74856;BME280;63407;53.018;8.690;2022-10-16T05:33:32;101074.63;;;15.82;67.81
74856;BME280;63407;53.018;8.690;2022-10-16T05:36:04;101082.13;;;15.80;67.84
74856;BME280;63407;53.018;8.690;2022-10-16T05:38:30;101084.59;;;15.81;67.75
74856;BME280;63407;53.018;8.690;2022-10-16T05:40:55;101086.47;;;15.81;67.87
74856;BME280;63407;53.018;8.690;2022-10-16T05:43:21;101087.50;;;15.80;67.81
74856;BME280;63407;53.018;8.690;2022-10-16T05:45:57;101083.78;;;15.81;67.88
74856;BME280;63407;53.018;8.690;2022-10-16T05:48:24;101087.50;;;15.80;67.62
74856;BME280;63407;53.018;8.690;2022-10-16T05:51:04;101081.25;;;15.79;67.77
74856;BME280;63407;53.018;8.690;2022-10-16T05:53:32;101088.34;;;15.80;67.81
74856;BME280;63407;53.018;8.690;2022-10-16T05:55:58;101097.25;;;15.81;67.89
74856;BME280;63407;53.018;8.690;2022-10-16T05:58:24;101099.13;;;15.80;67.76
74856;BME280;63407;53.018;8.690;2022-10-16T06:00:58;101099.97;;;15.81;68.02
74856;BME280;63407;53.018;8.690;2022-10-16T06:03:25;101098.31;;;15.80;67.77
74856;BME280;63407;53.018;8.690;2022-10-16T06:05:50;101104.31;;;15.82;67.78
74856;BME280;63407;53.018;8.690;2022-10-16T06:08:17;101103.31;;;15.83;67.89
74856;BME280;63407;53.018;8.690;2022-10-16T06:10:43;101103.31;;;15.83;67.68
74856;BME280;63407;53.018;8.690;2022-10-16T06:13:10;101109.72;;;15.82;67.63
74856;BME280;63407;53.018;8.690;2022-10-16T06:15:35;101113.25;;;15.82;67.81
74856;BME280;63407;53.018;8.690;2022-10-16T06:18:01;101122.22;;;15.83;67.90
74856;BME280;63407;53.018;8.690;2022-10-16T06:20:26;101123.22;;;15.82;67.93
74856;BME280;63407;53.018;8.690;2022-10-16T06:22:52;101119.50;;;15.83;67.81
74856;BME280;63407;53.018;8.690;2022-10-16T06:25:17;101126.56;;;15.84;67.98
74856;BME280;63407;53.018;8.690;2022-10-16T06:27:43;101124.91;;;15.83;67.83
74856;BME280;63407;53.018;8.690;2022-10-16T06:30:09;101118.47;;;15.84;67.86
74856;BME280;63407;53.018;8.690;2022-10-16T06:32:34;101118.28;;;15.85;67.77
74856;BME280;63407;53.018;8.690;2022-10-16T06:35:00;101126.56;;;15.84;67.78
74856;BME280;63407;53.018;8.690;2022-10-16T06:37:26;101136.97;;;15.87;67.71
74856;BME280;63407;53.018;8.690;2022-10-16T06:39:52;101133.63;;;15.85;67.77
74856;BME280;63407;53.018;8.690;2022-10-16T06:42:18;101138.84;;;15.86;67.73
74856;BME280;63407;53.018;8.690;2022-10-16T06:44:44;101144.03;;;15.88;67.72
74856;BME280;63407;53.018;8.690;2022-10-16T06:47:10;101155.69;;;15.88;67.75
74856;BME280;63407;53.018;8.690;2022-10-16T06:49:35;101161.09;;;15.88;67.69
74856;BME280;63407;53.018;8.690;2022-10-16T06:52:01;101166.28;;;15.90;67.75
74856;BME280;63407;53.018;8.690;2022-10-16T06:54:27;101171.50;;;15.91;67.52
74856;BME280;63407;53.018;8.690;2022-10-16T06:56:53;101177.53;;;15.93;67.52
74856;BME280;63407;53.018;8.690;2022-10-16T06:59:22;101176.69;;;15.93;67.66
74856;BME280;63407;53.018;8.690;2022-10-16T07:01:48;101183.56;;;15.95;67.55
74856;BME280;63407;53.018;8.690;2022-10-16T07:04:13;101181.72;;;15.96;67.60
74856;BME280;63407;53.018;8.690;2022-10-16T07:06:39;101188.16;;;15.95;67.61
74856;BME280;63407;53.018;8.690;2022-10-16T07:09:07;101187.09;;;15.96;67.50
74856;BME280;63407;53.018;8.690;2022-10-16T07:11:36;101190.63;;;15.96;67.87
74856;BME280;63407;53.018;8.690;2022-10-16T07:14:02;101194.81;;;15.99;67.44
74856;BME280;63407;53.018;8.690;2022-10-16T07:16:30;101203.56;;;16.01;67.44
74856;BME280;63407;53.018;8.690;2022-10-16T07:18:58;101210.63;;;16.02;67.29
74856;BME280;63407;53.018;8.690;2022-10-16T07:21:28;101206.94;;;16.03;67.27
74856;BME280;63407;53.018;8.690;2022-10-16T07:23:56;101206.53;;;16.06;67.26
74856;BME280;63407;53.018;8.690;2022-10-16T07:26:23;101213.59;;;16.07;66.98
74856;BME280;63407;53.018;8.690;2022-10-16T07:28:49;101216.94;;;16.09;66.93
74856;BME280;63407;53.018;8.690;2022-10-16T07:31:17;101216.94;;;16.09;67.10
74856;BME280;63407;53.018;8.690;2022-10-16T07:33:43;101224.00;;;16.10;66.87
74856;BME280;63407;53.018;8.690;2022-10-16T07:36:11;101227.38;;;16.12;67.10
74856;BME280;63407;53.018;8.690;2022-10-16T07:38:36;101221.31;;;16.10;67.02
74856;BME280;63407;53.018;8.690;2022-10-16T07:41:05;101231.09;;;16.11;66.98
74856;BME280;63407;53.018;8.690;2022-10-16T07:43:31;101232.13;;;16.10;67.20
74856;BME280;63407;53.018;8.690;2022-10-16T07:45:57;101236.50;;;16.11;67.71
74856;BME280;63407;53.018;8.690;2022-10-16T07:48:26;101233.16;;;16.09;67.37
74856;BME280;63407;53.018;8.690;2022-10-16T07:50:52;101234.81;;;16.10;67.12
74856;BME280;63407;53.018;8.690;2022-10-16T07:53:17;101246.47;;;16.11;67.34
74856;BME280;63407;53.018;8.690;2022-10-16T07:55:43;101250.63;;;16.13;67.05
74856;BME280;63407;53.018;8.690;2022-10-16T07:58:08;101258.56;;;16.15;67.18
74856;BME280;63407;53.018;8.690;2022-10-16T08:00:35;101252.78;;;16.18;66.90
74856;BME280;63407;53.018;8.690;2022-10-16T08:03:01;101251.56;;;16.21;66.81
74856;BME280;63407;53.018;8.690;2022-10-16T08:05:28;101252.84;;;16.25;66.74
74856;BME280;63407;53.018;8.690;2022-10-16T08:07:53;101257.22;;;16.26;66.81
74856;BME280;63407;53.018;8.690;2022-10-16T08:10:22;101261.19;;;16.30;66.64
74856;BME280;63407;53.018;8.690;2022-10-16T08:12:48;101267.44;;;16.30;66.58
74856;BME280;63407;53.018;8.690;2022-10-16T08:15:13;101261.19;;;16.30;66.71
74856;BME280;63407;53.018;8.690;2022-10-16T08:17:39;101276.00;;;16.34;66.42
74856;BME280;63407;53.018;8.690;2022-10-16T08:20:05;101276.19;;;16.32;66.57
74856;BME280;63407;53.018;8.690;2022-10-16T08:22:30;101287.22;;;16.31;66.66
74856;BME280;63407;53.018;8.690;2022-10-16T08:24:56;101282.81;;;16.30;66.87
74856;BME280;63407;53.018;8.690;2022-10-16T08:27:21;101288.75;;;16.40;66.85
74856;BME280;63407;53.018;8.690;2022-10-16T08:29:48;101294.88;;;16.49;66.57
74856;BME280;63407;53.018;8.690;2022-10-16T08:32:14;101300.66;;;16.46;66.78
74856;BME280;63407;53.018;8.690;2022-10-16T08:34:40;101300.97;;;16.57;66.53
74856;BME280;63407;53.018;8.690;2022-10-16T08:37:05;101304.38;;;16.66;66.52
74856;BME280;63407;53.018;8.690;2022-10-16T08:39:33;101301.63;;;16.81;66.48
74856;BME280;63407;53.018;8.690;2022-10-16T08:45:02;101301.75;;;18.47;60.52
74856;BME280;63407;53.018;8.690;2022-10-16T08:50:22;101317.78;;;17.24;64.75
74856;BME280;63407;53.018;8.690;2022-10-16T08:52:50;101314.69;;;18.58;60.52
74856;BME280;63407;53.018;8.690;2022-10-16T08:58:00;101317.22;;;18.59;61.14
74856;BME280;63407;53.018;8.690;2022-10-16T09:00:27;101319.97;;;18.86;60.02
74856;BME280;63407;53.018;8.690;2022-10-16T09:03:05;101324.97;;;20.14;56.55
74856;BME280;63407;53.018;8.690;2022-10-16T09:08:31;101332.72;;;18.24;62.19
74856;BME280;63407;53.018;8.690;2022-10-16T09:13:40;101355.28;;;17.55;64.71
74856;BME280;63407;53.018;8.690;2022-10-16T09:16:19;101346.69;;;17.45;64.97
74856;BME280;63407;53.018;8.690;2022-10-16T09:19:03;101347.91;;;17.42;65.06
74856;BME280;63407;53.018;8.690;2022-10-16T09:21:31;101346.28;;;18.24;61.87
74856;BME280;63407;53.018;8.690;2022-10-16T09:24:10;101354.44;;;17.26;65.08
74856;BME280;63407;53.018;8.690;2022-10-16T09:26:38;101354.31;;;17.13;65.46
74856;BME280;63407;53.018;8.690;2022-10-16T09:29:03;101364.69;;;17.09;65.67
74856;BME280;63407;53.018;8.690;2022-10-16T09:31:29;101362.13;;;17.01;66.02
74856;BME280;63407;53.018;8.690;2022-10-16T09:33:59;101361.50;;;16.99;65.93
74856;BME280;63407;53.018;8.690;2022-10-16T09:36:27;101367.53;;;17.01;66.01
74856;BME280;63407;53.018;8.690;2022-10-16T09:39:05;101361.69;;;16.98;66.17
74856;BME280;63407;53.018;8.690;2022-10-16T09:41:34;101359.56;;;16.93;66.39
74856;BME280;63407;53.018;8.690;2022-10-16T09:44:01;101348.31;;;16.90;66.44
74856;BME280;63407;53.018;8.690;2022-10-16T09:46:33;101358.28;;;16.89;66.53
74856;BME280;63407;53.018;8.690;2022-10-16T09:49:04;101357.91;;;16.92;66.20
74856;BME280;63407;53.018;8.690;2022-10-16T09:51:33;101357.63;;;16.87;66.67
74856;BME280;63407;53.018;8.690;2022-10-16T09:54:20;101366.78;;;16.86;66.38
74856;BME280;63407;53.018;8.690;2022-10-16T09:56:47;101376.56;;;16.87;66.52
74856;BME280;63407;53.018;8.690;2022-10-16T09:59:21;101372.38;;;16.84;66.36
74856;BME280;63407;53.018;8.690;2022-10-16T10:01:53;101376.94;;;16.84;66.42
74856;BME280;63407;53.018;8.690;2022-10-16T10:04:22;101382.34;;;16.84;66.36
74856;BME280;63407;53.018;8.690;2022-10-16T10:06:51;101369.22;;;16.81;66.44
74856;BME280;63407;53.018;8.690;2022-10-16T10:09:23;101382.75;;;16.81;66.46
74856;BME280;63407;53.018;8.690;2022-10-16T10:11:55;101384.41;;;16.82;66.51
74856;BME280;63407;53.018;8.690;2022-10-16T10:16:51;101390.47;;;16.84;66.42
74856;BME280;63407;53.018;8.690;2022-10-16T10:19:22;101391.13;;;16.86;66.28
74856;BME280;63407;53.018;8.690;2022-10-16T10:21:51;101403.22;;;16.90;66.31
74856;BME280;63407;53.018;8.690;2022-10-16T10:24:18;101399.28;;;16.93;66.14
74856;BME280;63407;53.018;8.690;2022-10-16T10:26:59;101408.88;;;16.95;66.04
74856;BME280;63407;53.018;8.690;2022-10-16T10:29:36;101416.59;;;16.98;66.00
74856;BME280;63407;53.018;8.690;2022-10-16T10:35:07;101425.25;;;17.08;65.75
74856;BME280;63407;53.018;8.690;2022-10-16T10:37:51;101422.09;;;17.05;66.11
74856;BME280;63407;53.018;8.690;2022-10-16T10:40:38;101418.78;;;17.09;65.78
74856;BME280;63407;53.018;8.690;2022-10-16T10:46:02;101422.16;;;17.12;65.91
74856;BME280;63407;53.018;8.690;2022-10-16T10:48:47;101420.63;;;17.02;65.98
74856;BME280;63407;53.018;8.690;2022-10-16T10:51:26;101424.59;;;17.06;66.03
74856;BME280;63407;53.018;8.690;2022-10-16T10:54:23;101424.72;;;17.20;66.11
74856;BME280;63407;53.018;8.690;2022-10-16T10:59:36;101425.88;;;17.32;65.60
74856;BME280;63407;53.018;8.690;2022-10-16T11:02:10;101411.94;;;17.35;65.45
74856;BME280;63407;53.018;8.690;2022-10-16T11:07:45;101431.53;;;17.37;65.84
74856;BME280;63407;53.018;8.690;2022-10-16T11:10:21;101422.84;;;17.42;65.68
74856;BME280;63407;53.018;8.690;2022-10-16T11:12:55;101425.78;;;17.47;65.38
74856;BME280;63407;53.018;8.690;2022-10-16T11:15:35;101429.56;;;17.52;65.23
74856;BME280;63407;53.018;8.690;2022-10-16T11:18:06;101437.31;;;17.56;65.22
74856;BME280;63407;53.018;8.690;2022-10-16T11:20:37;101442.31;;;17.59;65.09
74856;BME280;63407;53.018;8.690;2022-10-16T11:23:15;101451.75;;;17.41;65.78
74856;BME280;63407;53.018;8.690;2022-10-16T11:25:43;101453.75;;;17.54;65.31
74856;BME280;63407;53.018;8.690;2022-10-16T11:28:14;101451.75;;;17.63;64.75
74856;BME280;63407;53.018;8.690;2022-10-16T11:30:45;101451.34;;;17.66;65.35
74856;BME280;63407;53.018;8.690;2022-10-16T11:33:23;101454.25;;;17.64;65.24
74856;BME280;63407;53.018;8.690;2022-10-16T11:41:15;101469.38;;;17.59;65.54
74856;BME280;63407;53.018;8.690;2022-10-16T11:43:49;101467.06;;;17.56;65.80
74856;BME280;63407;53.018;8.690;2022-10-16T11:46:20;101471.28;;;17.37;66.23
74856;BME280;63407;53.018;8.690;2022-10-16T11:48:57;101474.06;;;17.22;66.83
74856;BME280;63407;53.018;8.690;2022-10-16T11:51:33;101477.75;;;19.03;61.80
74856;BME280;63407;53.018;8.690;2022-10-16T11:54:07;101476.41;;;22.54;49.53
74856;BME280;63407;53.018;8.690;2022-10-16T11:56:38;101474.75;;;20.64;54.54
74856;BME280;63407;53.018;8.690;2022-10-16T12:02:40;101479.72;;;19.36;59.13
74856;BME280;63407;53.018;8.690;2022-10-16T12:07:47;101484.47;;;19.07;59.93
74856;BME280;63407;53.018;8.690;2022-10-16T12:10:22;101500.53;;;18.26;62.45
74856;BME280;63407;53.018;8.690;2022-10-16T12:12:47;101506.47;;;18.42;62.70
74856;BME280;63407;53.018;8.690;2022-10-16T12:15:31;101504.78;;;19.51;58.72
74856;BME280;63407;53.018;8.690;2022-10-16T12:17:57;101501.34;;;18.61;61.38
74856;BME280;63407;53.018;8.690;2022-10-16T12:23:00;101505.78;;;17.99;63.92
74856;BME280;63407;53.018;8.690;2022-10-16T12:25:31;101511.00;;;18.01;63.71
74856;BME280;63407;53.018;8.690;2022-10-16T12:30:31;101519.81;;;17.81;64.54
74856;BME280;63407;53.018;8.690;2022-10-16T12:33:03;101520.13;;;17.71;64.87
74856;BME280;63407;53.018;8.690;2022-10-16T12:35:33;101525.22;;;17.81;64.89
74856;BME280;63407;53.018;8.690;2022-10-16T12:40:42;101534.19;;;18.10;63.82
74856;BME280;63407;53.018;8.690;2022-10-16T12:45:46;101532.56;;;18.15;63.95
74856;BME280;63407;53.018;8.690;2022-10-16T12:48:20;101546.06;;;18.09;64.06
74856;BME280;63407;53.018;8.690;2022-10-16T12:50:47;101551.53;;;17.87;64.82
74856;BME280;63407;53.018;8.690;2022-10-16T12:53:23;101557.44;;;17.76;65.41
74856;BME280;63407;53.018;8.690;2022-10-16T12:56:09;101553.81;;;17.69;65.52
74856;BME280;63407;53.018;8.690;2022-10-16T12:58:57;101536.56;;;17.91;64.83
74856;BME280;63407;53.018;8.690;2022-10-16T13:01:37;101549.97;;;18.00;64.55
74856;BME280;63407;53.018;8.690;2022-10-16T13:04:10;101552.16;;;17.89;64.81
74856;BME280;63407;53.018;8.690;2022-10-16T13:06:45;101547.00;;;17.94;64.77
74856;BME280;63407;53.018;8.690;2022-10-16T13:12:25;101556.56;;;17.90;64.80
74856;BME280;63407;53.018;8.690;2022-10-16T13:15:09;101560.28;;;17.89;64.76
74856;BME280;63407;53.018;8.690;2022-10-16T13:20:59;101569.94;;;17.98;64.58
74856;BME280;63407;53.018;8.690;2022-10-16T13:23:53;101578.84;;;17.92;64.78
74856;BME280;63407;53.018;8.690;2022-10-16T13:26:38;101577.84;;;17.93;64.63
74856;BME280;63407;53.018;8.690;2022-10-16T13:29:07;101577.88;;;18.00;64.58
74856;BME280;63407;53.018;8.690;2022-10-16T13:31:33;101581.88;;;18.04;64.74
74856;BME280;63407;53.018;8.690;2022-10-16T13:34:00;101590.84;;;18.05;64.24
74856;BME280;63407;53.018;8.690;2022-10-16T13:36:29;101595.03;;;18.07;64.10
74856;BME280;63407;53.018;8.690;2022-10-16T13:42:07;101602.97;;;18.09;64.07
74856;BME280;63407;53.018;8.690;2022-10-16T13:44:46;101597.97;;;18.12;64.07
74856;BME280;63407;53.018;8.690;2022-10-16T13:47:22;101593.38;;;18.13;63.95
74856;BME280;63407;53.018;8.690;2022-10-16T13:50:15;101603.88;;;18.16;63.86
74856;BME280;63407;53.018;8.690;2022-10-16T13:52:41;101592.16;;;18.15;63.93
74856;BME280;63407;53.018;8.690;2022-10-16T13:55:18;101601.38;;;18.21;63.59
74856;BME280;63407;53.018;8.690;2022-10-16T13:57:44;101594.25;;;18.13;63.90
74856;BME280;63407;53.018;8.690;2022-10-16T14:00:36;101614.06;;;18.14;64.07
74856;BME280;63407;53.018;8.690;2022-10-16T14:03:05;101615.19;;;18.26;63.97
74856;BME280;63407;53.018;8.690;2022-10-16T14:05:32;101613.97;;;18.29;64.13
74856;BME280;63407;53.018;8.690;2022-10-16T14:07:58;101618.53;;;18.28;64.55
74856;BME280;63407;53.018;8.690;2022-10-16T14:10:31;101625.22;;;18.32;64.36
74856;BME280;63407;53.018;8.690;2022-10-16T14:13:05;101628.59;;;18.34;64.57
74856;BME280;63407;53.018;8.690;2022-10-16T14:15:34;101626.94;;;18.33;64.52
74856;BME280;63407;53.018;8.690;2022-10-16T14:18:00;101628.41;;;18.36;64.34
74856;BME280;63407;53.018;8.690;2022-10-16T14:20:28;101634.00;;;18.34;64.27
74856;BME280;63407;53.018;8.690;2022-10-16T14:23:31;101648.22;;;18.36;64.30
74856;BME280;63407;53.018;8.690;2022-10-16T14:28:34;101648.66;;;18.40;64.08
74856;BME280;63407;53.018;8.690;2022-10-16T14:31:01;101646.13;;;18.38;64.18
74856;BME280;63407;53.018;8.690;2022-10-16T14:38:28;101647.44;;;18.42;63.98
74856;BME280;63407;53.018;8.690;2022-10-16T14:40:57;101647.81;;;18.39;63.98
74856;BME280;63407;53.018;8.690;2022-10-16T14:43:32;101648.47;;;18.41;64.04
74856;BME280;63407;53.018;8.690;2022-10-16T14:45:59;101644.06;;;18.40;63.74
74856;BME280;63407;53.018;8.690;2022-10-16T14:48:25;101648.75;;;18.53;63.55
74856;BME280;63407;53.018;8.690;2022-10-16T14:50:51;101639.56;;;18.48;63.83
74856;BME280;63407;53.018;8.690;2022-10-16T14:53:17;101654.50;;;18.43;63.79
74856;BME280;63407;53.018;8.690;2022-10-16T14:55:43;101656.59;;;18.41;63.87
74856;BME280;63407;53.018;8.690;2022-10-16T14:58:18;101661.56;;;18.38;63.91
74856;BME280;63407;53.018;8.690;2022-10-16T15:00:44;101665.88;;;18.32;64.07
74856;BME280;63407;53.018;8.690;2022-10-16T15:03:10;101672.22;;;18.18;64.57
74856;BME280;63407;53.018;8.690;2022-10-16T15:05:35;101667.59;;;18.12;64.64
74856;BME280;63407;53.018;8.690;2022-10-16T15:08:01;101669.19;;;18.06;64.92
74856;BME280;63407;53.018;8.690;2022-10-16T15:10:28;101674.56;;;18.00;65.03
74856;BME280;63407;53.018;8.690;2022-10-16T15:12:54;101689.97;;;17.99;65.01
74856;BME280;63407;53.018;8.690;2022-10-16T15:17:49;101698.69;;;17.94;65.15
74856;BME280;63407;53.018;8.690;2022-10-16T15:20:17;101699.06;;;17.91;65.27
74856;BME280;63407;53.018;8.690;2022-10-16T15:22:43;101698.41;;;17.89;65.35
74856;BME280;63407;53.018;8.690;2022-10-16T15:27:52;101696.91;;;17.87;65.44
74856;BME280;63407;53.018;8.690;2022-10-16T15:30:17;101695.44;;;17.84;65.64
74856;BME280;63407;53.018;8.690;2022-10-16T15:32:43;101698.53;;;17.81;65.70
74856;BME280;63407;53.018;8.690;2022-10-16T15:35:09;101705.81;;;17.81;65.72
74856;BME280;63407;53.018;8.690;2022-10-16T15:37:34;101699.56;;;17.80;65.59
74856;BME280;63407;53.018;8.690;2022-10-16T15:40:00;101699.75;;;17.79;65.85
74856;BME280;63407;53.018;8.690;2022-10-16T15:42:25;101707.22;;;17.76;65.91
74856;BME280;63407;53.018;8.690;2022-10-16T15:44:51;101704.66;;;17.75;65.88
74856;BME280;63407;53.018;8.690;2022-10-16T15:47:16;101703.00;;;17.74;66.02
74856;BME280;63407;53.018;8.690;2022-10-16T15:49:42;101702.06;;;17.67;66.13
74856;BME280;63407;53.018;8.690;2022-10-16T15:52:07;101697.03;;;17.64;66.44
74856;BME280;63407;53.018;8.690;2022-10-16T15:54:34;101693.22;;;17.58;66.42
74856;BME280;63407;53.018;8.690;2022-10-16T15:57:00;101701.56;;;17.57;66.71
74856;BME280;63407;53.018;8.690;2022-10-16T15:59:25;101690.25;;;17.53;66.84
74856;BME280;63407;53.018;8.690;2022-10-16T16:01:51;101687.75;;;17.51;66.85
74856;BME280;63407;53.018;8.690;2022-10-16T16:04:16;101695.19;;;17.49;66.86
74856;BME280;63407;53.018;8.690;2022-10-16T16:06:42;101706.41;;;17.46;67.07
74856;BME280;63407;53.018;8.690;2022-10-16T16:09:10;101710.78;;;17.47;67.22
74856;BME280;63407;53.018;8.690;2022-10-16T16:11:36;101719.94;;;17.46;67.26
74856;BME280;63407;53.018;8.690;2022-10-16T16:14:07;101725.72;;;17.43;67.27
74856;BME280;63407;53.018;8.690;2022-10-16T16:16:35;101717.63;;;17.43;67.25
74856;BME280;63407;53.018;8.690;2022-10-16T16:19:06;101721.38;;;17.42;67.38
74856;BME280;63407;53.018;8.690;2022-10-16T16:21:33;101732.19;;;17.42;67.16
74856;BME280;63407;53.018;8.690;2022-10-16T16:23:59;101730.88;;;17.38;67.54
74856;BME280;63407;53.018;8.690;2022-10-16T16:28:52;101740.03;;;17.37;67.68
74856;BME280;63407;53.018;8.690;2022-10-16T16:31:18;101737.50;;;17.36;67.48
74856;BME280;63407;53.018;8.690;2022-10-16T16:33:44;101742.06;;;17.35;67.45
74856;BME280;63407;53.018;8.690;2022-10-16T16:36:10;101750.19;;;17.35;67.47
74856;BME280;63407;53.018;8.690;2022-10-16T16:38:36;101750.19;;;17.35;67.51
74856;BME280;63407;53.018;8.690;2022-10-16T16:41:18;101751.22;;;17.34;67.32
74856;BME280;63407;53.018;8.690;2022-10-16T16:43:43;101749.53;;;17.33;67.40
74856;BME280;63407;53.018;8.690;2022-10-16T16:46:09;101758.31;;;17.35;67.43
74856;BME280;63407;53.018;8.690;2022-10-16T16:48:35;101762.41;;;17.31;67.57
74856;BME280;63407;53.018;8.690;2022-10-16T16:51:11;101770.53;;;17.31;67.52
74856;BME280;63407;53.018;8.690;2022-10-16T16:53:45;101776.97;;;17.30;67.59
74856;BME280;63407;53.018;8.690;2022-10-16T16:56:11;101774.25;;;17.30;67.49
74856;BME280;63407;53.018;8.690;2022-10-16T16:58:37;101778.16;;;17.27;67.67
74856;BME280;63407;53.018;8.690;2022-10-16T17:01:03;101786.19;;;17.36;67.25
74856;BME280;63407;53.018;8.690;2022-10-16T17:03:30;101791.44;;;17.37;67.20
74856;BME280;63407;53.018;8.690;2022-10-16T17:06:01;101796.66;;;17.39;66.96
74856;BME280;63407;53.018;8.690;2022-10-16T17:08:31;101799.19;;;17.40;66.85
74856;BME280;63407;53.018;8.690;2022-10-16T17:10:57;101795.81;;;17.38;66.97
74856;BME280;63407;53.018;8.690;2022-10-16T17:13:28;101793.09;;;17.38;67.02
74856;BME280;63407;53.018;8.690;2022-10-16T17:15:54;101797.69;;;17.38;66.87
74856;BME280;63407;53.018;8.690;2022-10-16T17:18:21;101790.41;;;17.38;66.74
74856;BME280;63407;53.018;8.690;2022-10-16T17:20:47;101803.94;;;17.38;66.88
74856;BME280;63407;53.018;8.690;2022-10-16T17:23:14;101804.97;;;17.37;66.94
74856;BME280;63407;53.018;8.690;2022-10-16T17:25:40;101811.41;;;17.36;66.81
74856;BME280;63407;53.018;8.690;2022-10-16T17:28:07;101822.03;;;17.38;66.87
74856;BME280;63407;53.018;8.690;2022-10-16T17:30:33;101813.09;;;17.37;66.89
74856;BME280;63407;53.018;8.690;2022-10-16T17:33:03;101815.13;;;17.35;66.98
74856;BME280;63407;53.018;8.690;2022-10-16T17:35:28;101816.16;;;17.34;66.84
74856;BME280;63407;53.018;8.690;2022-10-16T17:37:54;101812.41;;;17.35;66.87
74856;BME280;63407;53.018;8.690;2022-10-16T17:40:19;101820.75;;;17.34;66.90
74856;BME280;63407;53.018;8.690;2022-10-16T17:42:46;101835.09;;;17.34;66.89
74856;BME280;63407;53.018;8.690;2022-10-16T17:45:13;101843.22;;;17.34;66.96
74856;BME280;63407;53.018;8.690;2022-10-16T17:47:38;101843.22;;;17.34;66.97
74856;BME280;63407;53.018;8.690;2022-10-16T17:50:06;101828.66;;;17.35;66.86
74856;BME280;63407;53.018;8.690;2022-10-16T17:52:32;101841.53;;;17.33;67.03
74856;BME280;63407;53.018;8.690;2022-10-16T17:54:57;101857.13;;;17.31;66.99
74856;BME280;63407;53.018;8.690;2022-10-16T17:57:23;101863.16;;;17.33;66.86
74856;BME280;63407;53.018;8.690;2022-10-16T17:59:49;101863.16;;;17.33;66.92
74856;BME280;63407;53.018;8.690;2022-10-16T18:02:14;101866.06;;;17.31;66.92
74856;BME280;63407;53.018;8.690;2022-10-16T18:04:41;101868.94;;;17.30;66.99
74856;BME280;63407;53.018;8.690;2022-10-16T18:07:06;101872.69;;;17.29;67.08
74856;BME280;63407;53.018;8.690;2022-10-16T18:09:32;101870.81;;;17.29;67.06
74856;BME280;63407;53.018;8.690;2022-10-16T18:11:57;101872.69;;;17.29;66.99
74856;BME280;63407;53.018;8.690;2022-10-16T18:14:27;101877.28;;;17.28;67.25
74856;BME280;63407;53.018;8.690;2022-10-16T18:16:54;101870.16;;;17.27;67.10